Aviation Digital Data Service (ADDS)

Output produced by METARs form (2017 UTC 29 May 2015)
found at http://www.aviationweather.gov/adds/metars/
 
KILG 291951Z 15010KT 10SM CLR 28/18 A3023 RMK AO2 SLP237 T02780183
KILG 291743Z 2918/3018 12005KT P6SM SCT120 
     FM292000 14007KT P6SM FEW050 
     FM300000 17006KT P6SM SCT250 
     FM301000 18006KT 4SM BR SCT015 BKN035 
     FM301600 20010G17KT P6SM SCT050